Time;durP1;ratioP1;P1;durP2;ratioP2;P2;SDS_P1;SDS_P2;PMS_P1;PMS_P2;Temp;Humidity;BMP_temperature;BMP_pressure;BME280_temperature;BME280_humidity;BME280_pressure;Samples;Min_cycle;Max_cycle;Signal;HPM_P1;HPM_P2
2021/09/04 00:00:11;;;;;;;15.02;10.30;;;20.40;99.90;;;;;;4932943;29;20102;-92
2021/09/04 00:02:37;;;;;;;14.82;9.98;;;20.30;99.90;;;;;;4945689;28;20204;-93
2021/09/04 00:05:04;;;;;;;11.43;10.23;;;20.30;99.90;;;;;;4935991;29;20027;-93
2021/09/04 00:07:31;;;;;;;13.65;10.45;;;20.20;99.90;;;;;;4934055;29;20091;-93
2021/09/04 00:09:58;;;;;;;11.30;10.13;;;20.20;99.90;;;;;;4932786;29;20493;-94
2021/09/04 00:12:25;;;;;;;12.35;10.13;;;20.20;99.90;;;;;;4948548;28;20043;-93
2021/09/04 00:14:52;;;;;;;12.05;10.68;;;20.20;99.90;;;;;;4935139;28;20132;-93
2021/09/04 00:17:17;;;;;;;12.80;10.35;;;20.20;99.90;;;;;;4934153;29;20084;-92
2021/09/04 00:19:43;;;;;;;14.15;11.77;;;20.20;99.90;;;;;;4932828;29;20563;-93
2021/09/04 00:22:09;;;;;;;17.58;12.93;;;20.20;99.90;;;;;;4932844;29;20039;-93
2021/09/04 00:24:34;;;;;;;16.17;11.90;;;20.20;99.90;;;;;;4945367;28;20537;-92
2021/09/04 00:27:00;;;;;;;17.15;12.93;;;20.20;99.90;;;;;;4931986;29;20031;-92
2021/09/04 00:29:26;;;;;;;17.08;12.95;;;20.10;99.90;;;;;;4946185;28;20416;-93
2021/09/04 00:31:52;;;;;;;18.55;14.07;;;20.10;99.90;;;;;;4933661;29;20054;-93
2021/09/04 00:34:18;;;;;;;15.50;13.52;;;20.10;99.90;;;;;;4933545;29;20028;-93
2021/09/04 00:36:43;;;;;;;23.77;14.02;;;20.10;99.90;;;;;;4928215;29;20087;-93
2021/09/04 00:39:09;;;;;;;19.20;15.13;;;20.10;99.90;;;;;;4936293;29;20030;-94
2021/09/04 00:41:35;;;;;;;16.25;14.02;;;20.00;99.90;;;;;;4936375;29;20424;-93
2021/09/04 00:44:02;;;;;;;17.13;13.98;;;20.10;99.90;;;;;;4937603;29;20036;-93
2021/09/04 00:46:28;;;;;;;21.02;15.30;;;20.10;99.90;;;;;;4937335;29;20047;-93
2021/09/04 00:48:54;;;;;;;16.77;13.95;;;20.00;99.90;;;;;;4939758;28;20489;-93
2021/09/04 00:51:20;;;;;;;18.35;14.80;;;20.10;99.90;;;;;;4932823;29;20374;-93
2021/09/04 00:53:45;;;;;;;16.05;14.05;;;20.00;99.90;;;;;;4933298;29;20496;-93
2021/09/04 00:56:14;;;;;;;19.70;14.93;;;20.10;99.90;;;;;;4949509;29;20031;-93
2021/09/04 00:58:40;;;;;;;16.83;14.73;;;20.00;99.90;;;;;;4936328;29;20122;-93
2021/09/04 01:01:06;;;;;;;17.02;15.05;;;19.90;99.90;;;;;;4937165;29;20038;-93
2021/09/04 01:03:32;;;;;;;16.33;14.63;;;20.00;99.90;;;;;;4935799;29;20047;-94
2021/09/04 01:05:57;;;;;;;16.52;14.80;;;20.00;99.90;;;;;;4949080;28;20485;-93
2021/09/04 01:08:23;;;;;;;18.88;15.07;;;19.90;99.90;;;;;;4935437;29;20260;-94
2021/09/04 01:10:53;;;;;;;18.42;14.77;;;19.90;99.90;;;;;;4932868;29;20034;-93
2021/09/04 01:13:20;;;;;;;16.75;14.90;;;19.90;99.90;;;;;;4916935;29;20020;-94
2021/09/04 01:15:46;;;;;;;18.13;15.68;;;19.90;99.90;;;;;;4943089;29;20075;-93
2021/09/04 01:18:12;;;;;;;18.70;15.50;;;19.90;99.90;;;;;;4935912;29;20028;-93
2021/09/04 01:20:38;;;;;;;16.02;14.45;;;19.90;99.90;;;;;;4935950;29;20030;-93
2021/09/04 01:23:05;;;;;;;16.92;13.90;;;19.90;99.90;;;;;;4932800;29;20036;-94
2021/09/04 01:25:32;;;;;;;17.23;13.30;;;19.90;99.90;;;;;;4935703;29;20031;-93
2021/09/04 01:28:00;;;;;;;15.43;13.05;;;19.90;99.90;;;;;;4948570;28;20131;-93
2021/09/04 01:30:27;;;;;;;17.63;13.35;;;20.00;99.90;;;;;;4934783;29;20056;-93
2021/09/04 01:32:54;;;;;;;15.57;13.90;;;19.90;99.90;;;;;;4935741;29;20036;-93
2021/09/04 01:35:23;;;;;;;14.75;13.23;;;20.00;99.90;;;;;;4935481;29;20031;-92
2021/09/04 01:37:49;;;;;;;15.48;13.98;;;20.00;99.90;;;;;;4948268;28;20032;-93
2021/09/04 01:40:16;;;;;;;16.65;13.25;;;20.00;99.90;;;;;;4927649;29;20405;-93
2021/09/04 01:42:45;;;;;;;21.25;13.95;;;20.00;99.90;;;;;;4935130;29;20031;-93
2021/09/04 01:45:11;;;;;;;17.45;15.07;;;20.00;99.90;;;;;;4936458;29;20031;-93
2021/09/04 01:47:38;;;;;;;19.10;15.60;;;20.00;99.90;;;;;;4935119;29;21380;-93
2021/09/04 01:50:09;;;;;;;19.65;15.52;;;20.00;99.90;;;;;;4935467;29;20020;-93
2021/09/04 01:52:35;;;;;;;21.70;17.58;;;20.00;99.90;;;;;;4949473;28;20083;-92
2021/09/04 01:55:01;;;;;;;21.05;18.67;;;19.80;99.90;;;;;;4936667;29;20099;-93
2021/09/04 01:57:26;;;;;;;20.25;18.08;;;19.70;99.90;;;;;;4936487;29;20107;-93
2021/09/04 01:59:52;;;;;;;20.08;17.65;;;19.70;99.90;;;;;;4950661;29;20563;-93
2021/09/04 02:02:18;;;;;;;20.38;18.25;;;19.70;99.90;;;;;;4935083;29;20086;-93
2021/09/04 02:04:43;;;;;;;19.23;17.17;;;19.70;99.90;;;;;;4935785;29;20047;-93
2021/09/04 02:07:09;;;;;;;20.08;16.85;;;19.70;99.90;;;;;;4936224;29;20028;-93
2021/09/04 02:09:35;;;;;;;19.52;17.50;;;19.70;99.90;;;;;;4936377;29;20468;-93
2021/09/04 02:12:01;;;;;;;18.85;15.95;;;19.60;99.90;;;;;;4936433;29;20450;-93
2021/09/04 02:14:27;;;;;;;19.75;16.45;;;19.60;99.90;;;;;;4935653;29;20034;-93
2021/09/04 02:16:53;;;;;;;17.55;15.60;;;19.60;99.90;;;;;;4950720;28;20465;-92
2021/09/04 02:19:18;;;;;;;16.67;14.85;;;19.60;99.90;;;;;;4925012;29;20268;-93
2021/09/04 02:21:44;;;;;;;20.15;14.98;;;19.60;99.90;;;;;;4934622;29;20034;-93
2021/09/04 02:24:10;;;;;;;18.10;15.02;;;19.60;99.90;;;;;;4935660;29;20108;-94
2021/09/04 02:26:35;;;;;;;18.75;16.02;;;19.60;99.90;;;;;;4937263;29;20031;-93
2021/09/04 02:29:01;;;;;;;17.33;15.50;;;19.70;99.90;;;;;;4934655;29;20039;-94
2021/09/04 02:31:27;;;;;;;18.33;14.10;;;19.70;99.90;;;;;;4947488;28;20485;-92
2021/09/04 02:33:54;;;;;;;16.23;14.57;;;19.70;99.90;;;;;;4933896;29;20408;-93
2021/09/04 02:36:20;;;;;;;14.85;13.35;;;19.70;99.90;;;;;;4947225;28;20601;-93
2021/09/04 02:38:46;;;;;;;15.63;13.70;;;19.80;99.90;;;;;;4929674;29;20355;-93
2021/09/04 02:41:12;;;;;;;16.02;14.32;;;19.80;99.90;;;;;;4928770;29;20397;-93
2021/09/04 02:43:39;;;;;;;16.55;14.43;;;19.80;99.90;;;;;;4939409;29;20036;-93
2021/09/04 02:46:05;;;;;;;16.90;14.07;;;19.80;99.90;;;;;;4932153;29;20484;-92
2021/09/04 02:48:31;;;;;;;16.08;14.32;;;19.80;99.90;;;;;;4947573;28;20043;-93
2021/09/04 02:50:57;;;;;;;15.45;13.40;;;19.80;99.90;;;;;;4930497;29;20063;-93
2021/09/04 02:53:23;;;;;;;15.25;13.65;;;19.70;99.90;;;;;;4933316;29;20031;-93
2021/09/04 02:55:49;;;;;;;15.25;13.27;;;19.70;99.90;;;;;;4946718;28;20083;-93
2021/09/04 02:58:15;;;;;;;14.88;13.27;;;19.70;99.90;;;;;;4935155;29;20543;-94
2021/09/04 03:00:40;;;;;;;14.98;13.38;;;19.60;99.90;;;;;;4933900;29;20050;-93
2021/09/04 03:03:06;;;;;;;15.02;13.32;;;19.60;99.90;;;;;;4946653;28;20176;-93
2021/09/04 03:05:32;;;;;;;15.00;13.38;;;19.50;99.90;;;;;;4924806;29;20091;-93
2021/09/04 03:07:58;;;;;;;16.08;14.45;;;19.50;99.90;;;;;;4949787;28;20408;-93
2021/09/04 03:10:24;;;;;;;17.70;14.93;;;19.50;99.90;;;;;;4949759;29;20028;-93
2021/09/04 03:12:50;;;;;;;17.35;14.23;;;19.50;99.90;;;;;;4933578;29;20098;-93
2021/09/04 03:15:16;;;;;;;17.67;15.75;;;19.50;99.90;;;;;;4949422;29;20023;-94
2021/09/04 03:17:41;;;;;;;17.50;15.05;;;19.50;99.90;;;;;;4933477;29;20024;-94
2021/09/04 03:20:08;;;;;;;18.42;16.52;;;19.50;99.90;;;;;;4946381;28;20408;-93
2021/09/04 03:22:34;;;;;;;16.58;14.80;;;19.50;99.90;;;;;;4924452;29;20028;-94
2021/09/04 03:25:00;;;;;;;18.20;14.23;;;19.50;99.90;;;;;;4948595;28;20032;-93
2021/09/04 03:27:25;;;;;;;17.42;15.52;;;19.50;99.90;;;;;;4934525;29;20035;-93
2021/09/04 03:29:51;;;;;;;17.70;14.82;;;19.30;99.90;;;;;;4934258;29;20539;-93
2021/09/04 03:32:17;;;;;;;14.90;13.50;;;19.40;99.90;;;;;;4933455;29;20075;-93
2021/09/04 03:34:43;;;;;;;17.85;14.65;;;19.40;99.90;;;;;;4946380;28;20412;-93
2021/09/04 03:37:08;;;;;;;17.20;14.70;;;19.50;99.90;;;;;;4931718;29;20268;-93
2021/09/04 03:39:34;;;;;;;16.70;15.00;;;19.50;99.90;;;;;;4934497;29;20036;-92
2021/09/04 03:42:00;;;;;;;15.57;13.65;;;19.50;99.90;;;;;;4933219;29;20031;-93
2021/09/04 03:44:25;;;;;;;15.57;13.82;;;19.50;99.90;;;;;;4946071;28;20063;-94
2021/09/04 03:46:51;;;;;;;15.60;13.70;;;19.50;99.90;;;;;;4923970;29;20023;-93
2021/09/04 03:49:19;;;;;;;15.68;13.90;;;19.40;99.90;;;;;;4933108;29;20171;-94
2021/09/04 03:51:45;;;;;;;15.85;13.48;;;19.40;99.90;;;;;;4932993;29;20023;-93
2021/09/04 03:54:11;;;;;;;14.63;12.48;;;19.40;99.90;;;;;;4946744;29;20482;-93
2021/09/04 03:56:36;;;;;;;14.85;13.30;;;19.30;99.90;;;;;;4933470;29;20488;-93
2021/09/04 03:59:02;;;;;;;14.68;13.23;;;19.30;99.90;;;;;;4945516;28;20036;-93
2021/09/04 04:01:28;;;;;;;14.65;12.75;;;19.20;99.90;;;;;;4931727;29;20031;-93
2021/09/04 04:03:54;;;;;;;15.80;13.23;;;19.20;99.90;;;;;;4932655;29;20095;-93
2021/09/04 04:06:19;;;;;;;14.55;13.07;;;19.20;99.90;;;;;;4932998;29;20059;-93
2021/09/04 04:08:45;;;;;;;14.70;13.02;;;19.20;99.90;;;;;;4933042;29;20059;-93
2021/09/04 04:11:12;;;;;;;14.77;12.65;;;19.20;99.90;;;;;;4932626;29;20118;-93
2021/09/04 04:13:38;;;;;;;15.20;12.93;;;19.10;99.90;;;;;;4932981;29;20028;-93
2021/09/04 04:16:05;;;;;;;15.05;12.55;;;19.10;99.90;;;;;;4933861;29;20416;-93
2021/09/04 04:18:33;;;;;;;14.48;12.98;;;19.10;99.90;;;;;;4932993;29;20024;-93
2021/09/04 04:20:59;;;;;;;14.00;12.52;;;19.00;99.90;;;;;;4948971;28;20027;-93
2021/09/04 04:23:28;;;;;;;19.25;13.55;;;19.00;99.90;;;;;;4948517;28;20064;-93
2021/09/04 04:25:54;;;;;;;15.60;13.23;;;19.00;99.90;;;;;;4932771;29;20028;-93
2021/09/04 04:28:20;;;;;;;15.75;13.82;;;19.00;99.90;;;;;;4945486;28;20059;-93
2021/09/04 04:30:46;;;;;;;15.82;14.15;;;19.00;99.90;;;;;;4937098;29;20031;-93
2021/09/04 04:33:13;;;;;;;15.80;13.88;;;19.00;99.90;;;;;;4932705;29;20019;-94
2021/09/04 04:35:39;;;;;;;16.70;14.90;;;19.00;99.90;;;;;;4948751;29;20087;-93
2021/09/04 04:38:05;;;;;;;16.77;14.85;;;19.00;99.90;;;;;;4932853;29;20118;-93
2021/09/04 04:40:30;;;;;;;15.27;13.63;;;19.00;99.90;;;;;;4945758;28;20123;-93
2021/09/04 04:42:56;;;;;;;15.88;13.63;;;18.90;99.90;;;;;;4932464;29;20082;-93
2021/09/04 04:45:22;;;;;;;15.93;14.23;;;18.90;99.90;;;;;;4948432;28;20032;-93
2021/09/04 04:47:48;;;;;;;17.98;13.98;;;18.90;99.90;;;;;;4932362;29;20063;-93
2021/09/04 04:50:15;;;;;;;15.43;13.82;;;18.90;99.90;;;;;;4932519;29;20086;-93
2021/09/04 04:52:41;;;;;;;15.43;13.23;;;18.90;99.90;;;;;;4932762;29;20028;-93
2021/09/04 04:55:08;;;;;;;19.00;13.43;;;18.90;99.90;;;;;;4929636;29;20208;-94
2021/09/04 04:57:33;;;;;;;15.27;13.68;;;18.80;99.90;;;;;;4927663;29;20118;-93
2021/09/04 04:59:59;;;;;;;14.65;13.05;;;18.80;99.90;;;;;;4929397;29;20103;-93
2021/09/04 05:02:25;;;;;;;15.57;13.23;;;18.90;99.90;;;;;;4913622;29;20059;-93
2021/09/04 05:04:51;;;;;;;15.20;12.80;;;18.80;99.90;;;;;;4946916;29;20496;-93
2021/09/04 05:07:16;;;;;;;14.00;12.60;;;18.80;99.90;;;;;;4932550;29;20035;-93
2021/09/04 05:09:42;;;;;;;14.13;12.20;;;18.80;99.90;;;;;;4945255;28;20088;-94
2021/09/04 05:12:08;;;;;;;13.90;12.50;;;18.70;99.90;;;;;;4937345;29;20388;-93
2021/09/04 05:14:34;;;;;;;13.82;12.30;;;18.70;99.90;;;;;;4932308;29;20024;-94
2021/09/04 05:17:00;;;;;;;13.98;12.57;;;18.70;99.90;;;;;;4935654;29;20483;-94
2021/09/04 05:19:26;;;;;;;13.52;12.13;;;18.70;99.90;;;;;;4948618;28;20119;-93
2021/09/04 05:21:51;;;;;;;13.00;11.70;;;18.70;99.90;;;;;;4934311;29;20052;-93
2021/09/04 05:24:17;;;;;;;14.98;12.00;;;18.60;99.90;;;;;;4935679;29;20035;-93
2021/09/04 05:26:43;;;;;;;13.88;12.45;;;18.60;99.90;;;;;;4922129;29;20032;-93
2021/09/04 05:29:08;;;;;;;14.88;11.80;;;18.60;99.90;;;;;;4935688;29;20427;-93
2021/09/04 05:31:34;;;;;;;13.20;11.90;;;18.60;99.90;;;;;;4948860;28;20029;-94
2021/09/04 05:34:00;;;;;;;13.90;12.40;;;18.60;99.90;;;;;;4935936;29;20024;-93
2021/09/04 05:36:26;;;;;;;12.85;11.60;;;18.60;99.90;;;;;;4948290;28;20032;-93
2021/09/04 05:38:51;;;;;;;12.27;10.98;;;18.60;99.90;;;;;;4931332;29;20024;-93
2021/09/04 05:41:17;;;;;;;15.55;12.57;;;18.50;99.90;;;;;;4935461;29;20087;-94
2021/09/04 05:43:43;;;;;;;13.38;11.93;;;18.50;99.90;;;;;;4948215;28;20489;-93
2021/09/04 05:46:09;;;;;;;15.35;11.95;;;18.50;99.90;;;;;;4933951;29;20061;-93
2021/09/04 05:48:35;;;;;;;15.25;12.10;;;18.50;99.90;;;;;;4948522;28;20332;-93
2021/09/04 05:51:00;;;;;;;13.63;12.27;;;18.60;99.90;;;;;;4931995;29;20028;-93
2021/09/04 05:53:26;;;;;;;14.73;13.02;;;18.60;99.90;;;;;;4936331;29;20055;-92
2021/09/04 05:55:52;;;;;;;14.05;11.93;;;18.60;99.90;;;;;;4935013;29;20163;-94
2021/09/04 05:58:18;;;;;;;14.10;12.70;;;18.70;99.90;;;;;;4935300;29;20026;-93
2021/09/04 06:00:44;;;;;;;15.35;13.70;;;18.70;99.90;;;;;;4947989;28;20107;-93
2021/09/04 06:03:09;;;;;;;15.75;14.15;;;18.70;99.90;;;;;;4933537;29;20135;-93
2021/09/04 06:05:36;;;;;;;16.65;14.90;;;18.80;99.90;;;;;;4948187;28;20024;-93
2021/09/04 06:08:02;;;;;;;15.05;13.40;;;18.90;99.90;;;;;;4931893;29;20276;-93
2021/09/04 06:10:28;;;;;;;15.90;14.07;;;18.90;99.90;;;;;;4934942;29;20118;-93
2021/09/04 06:12:54;;;;;;;15.90;14.27;;;19.00;99.90;;;;;;4948544;28;20124;-93
2021/09/04 06:15:19;;;;;;;16.48;14.77;;;19.10;99.90;;;;;;4935260;29;20020;-93
2021/09/04 06:17:45;;;;;;;16.52;14.43;;;19.20;99.90;;;;;;4947773;28;20020;-93
2021/09/04 06:20:11;;;;;;;15.63;13.80;;;19.20;99.90;;;;;;4933627;29;20444;-93
2021/09/04 06:22:37;;;;;;;21.52;14.57;;;19.30;99.90;;;;;;4947453;28;20067;-93
2021/09/04 06:25:03;;;;;;;17.65;14.05;;;19.40;99.90;;;;;;4931591;29;20047;-93
2021/09/04 06:27:29;;;;;;;18.17;13.93;;;19.40;99.90;;;;;;4934742;29;20504;-93
2021/09/04 06:29:55;;;;;;;16.05;14.00;;;19.50;99.90;;;;;;4947963;28;20040;-93
2021/09/04 06:32:21;;;;;;;15.80;14.18;;;19.50;99.90;;;;;;4934592;29;20028;-93
2021/09/04 06:34:47;;;;;;;16.75;15.00;;;19.60;99.90;;;;;;4947375;28;20123;-91
2021/09/04 06:37:13;;;;;;;16.95;14.07;;;19.60;99.90;;;;;;4933839;29;20118;-90
2021/09/04 06:39:39;;;;;;;20.63;14.23;;;19.70;99.90;;;;;;4935272;29;20032;-90
2021/09/04 06:42:05;;;;;;;20.20;13.95;;;19.70;99.90;;;;;;4933677;29;20437;-90
2021/09/04 06:44:31;;;;;;;18.92;15.18;;;19.70;99.90;;;;;;4949451;28;20036;-92
2021/09/04 06:46:56;;;;;;;16.65;14.95;;;19.70;99.90;;;;;;4936515;29;20023;-90
2021/09/04 06:49:22;;;;;;;19.52;15.00;;;19.80;99.90;;;;;;4933832;29;20389;-90
2021/09/04 06:51:47;;;;;;;17.58;15.80;;;19.80;99.90;;;;;;4934816;29;20019;-90
2021/09/04 06:54:13;;;;;;;18.02;15.20;;;19.80;99.90;;;;;;4934768;29;20098;-90
2021/09/04 06:56:39;;;;;;;16.35;14.48;;;19.90;99.90;;;;;;4932362;29;20139;-90
2021/09/04 06:59:05;;;;;;;17.33;13.75;;;19.90;99.90;;;;;;4933330;29;20028;-89
2021/09/04 07:01:30;;;;;;;14.18;12.65;;;20.10;99.90;;;;;;4934552;29;20046;-89
2021/09/04 07:03:56;;;;;;;17.92;13.50;;;20.20;99.90;;;;;;4935073;29;20031;-90
2021/09/04 07:06:22;;;;;;;14.20;12.75;;;20.30;99.90;;;;;;4934316;29;20035;-89
2021/09/04 07:08:47;;;;;;;13.88;11.73;;;20.50;99.90;;;;;;4934469;29;20074;-89
2021/09/04 07:11:13;;;;;;;13.13;11.55;;;20.50;99.90;;;;;;4932963;29;20088;-89
2021/09/04 07:13:39;;;;;;;14.93;11.23;;;20.70;99.90;;;;;;4934331;29;20028;-90
2021/09/04 07:16:05;;;;;;;14.88;10.57;;;20.70;99.90;;;;;;4934503;29;20031;-89
2021/09/04 07:18:31;;;;;;;13.82;11.15;;;20.80;99.90;;;;;;4934521;29;20090;-90
2021/09/04 07:20:57;;;;;;;13.75;10.88;;;20.80;99.90;;;;;;4934398;29;20111;-89
2021/09/04 07:23:24;;;;;;;12.07;10.82;;;20.80;99.90;;;;;;4934237;29;20205;-89
2021/09/04 07:25:49;;;;;;;10.63;9.52;;;20.80;99.90;;;;;;4934302;29;20468;-89
2021/09/04 07:28:15;;;;;;;10.95;9.85;;;20.90;99.90;;;;;;4934002;29;20485;-90
2021/09/04 07:30:41;;;;;;;11.60;8.77;;;21.00;99.90;;;;;;4934452;29;20031;-89
2021/09/04 07:33:06;;;;;;;14.15;9.50;;;21.10;99.90;;;;;;4934496;29;20099;-89
2021/09/04 07:35:32;;;;;;;11.13;9.32;;;21.20;99.90;;;;;;4934034;29;20111;-89
2021/09/04 07:37:58;;;;;;;13.18;8.80;;;21.10;99.90;;;;;;4933768;29;20059;-90
2021/09/04 07:40:23;;;;;;;8.98;8.07;;;21.10;99.90;;;;;;4933964;29;20532;-90
2021/09/04 07:42:49;;;;;;;14.15;8.38;;;21.10;99.90;;;;;;4931450;29;20507;-89
2021/09/04 07:45:15;;;;;;;9.63;7.20;;;21.10;99.90;;;;;;4934074;29;20400;-90
2021/09/04 07:47:41;;;;;;;9.13;6.28;;;21.10;99.90;;;;;;4933529;29;20028;-89
2021/09/04 07:50:07;;;;;;;10.27;8.18;;;21.10;99.90;;;;;;4934334;29;20015;-90
2021/09/04 07:52:33;;;;;;;8.10;6.97;;;21.10;99.90;;;;;;4934532;29;20039;-89
2021/09/04 07:54:59;;;;;;;10.00;6.78;;;21.10;99.90;;;;;;4934764;29;20028;-90
2021/09/04 07:57:24;;;;;;;9.70;7.65;;;21.20;99.90;;;;;;4941651;29;20063;-90
2021/09/04 07:59:52;;;;;;;9.65;7.75;;;21.10;99.90;;;;;;4934163;29;20484;-90
2021/09/04 08:02:18;;;;;;;7.97;6.85;;;21.20;99.90;;;;;;4932854;29;20054;-89
2021/09/04 08:04:43;;;;;;;9.63;7.93;;;21.20;99.90;;;;;;4934052;29;20032;-89
2021/09/04 08:07:09;;;;;;;9.60;7.88;;;21.10;99.90;;;;;;4948532;28;20107;-90
2021/09/04 08:09:35;;;;;;;12.93;6.93;;;21.20;99.90;;;;;;4934158;29;20476;-89
2021/09/04 08:12:01;;;;;;;11.20;7.05;;;21.30;99.90;;;;;;4930250;29;20027;-92
2021/09/04 08:14:26;;;;;;;9.93;7.68;;;21.40;99.90;;;;;;4934609;29;20453;-92
2021/09/04 08:16:52;;;;;;;9.48;6.88;;;21.40;99.90;;;;;;4933540;29;20424;-92
2021/09/04 08:19:18;;;;;;;7.53;6.82;;;21.40;99.90;;;;;;4942465;29;20055;-92
2021/09/04 08:21:43;;;;;;;11.45;6.75;;;21.50;99.90;;;;;;4935395;29;20452;-91
2021/09/04 08:24:09;;;;;;;7.55;6.65;;;21.70;99.90;;;;;;4929955;29;20043;-92
2021/09/04 08:26:35;;;;;;;8.27;6.60;;;21.80;99.90;;;;;;4924211;29;20079;-92
2021/09/04 08:29:00;;;;;;;10.60;6.90;;;21.90;99.90;;;;;;4950276;28;20368;-92
2021/09/04 08:31:26;;;;;;;8.85;7.25;;;22.00;99.90;;;;;;4935574;28;20151;-91
2021/09/04 08:33:52;;;;;;;14.57;11.35;;;22.00;99.90;;;;;;4937912;29;20036;-92
2021/09/04 08:36:17;;;;;;;15.13;12.13;;;22.10;99.90;;;;;;4948548;28;20024;-90
2021/09/04 08:38:43;;;;;;;16.08;11.55;;;22.10;99.90;;;;;;4930724;29;20034;-91
2021/09/04 08:41:09;;;;;;;13.65;11.98;;;22.00;99.90;;;;;;4938150;29;20075;-89
2021/09/04 08:43:34;;;;;;;15.98;13.35;;;22.10;99.90;;;;;;4939527;29;20071;-87
2021/09/04 08:46:01;;;;;;;16.10;13.50;;;22.10;99.90;;;;;;4941164;29;20023;-88
2021/09/04 08:48:27;;;;;;;14.73;13.32;;;22.10;99.90;;;;;;4939670;29;20128;-88
2021/09/04 08:50:54;;;;;;;17.17;15.45;;;21.90;99.90;;;;;;4935305;29;20547;-89
2021/09/04 08:53:23;;;;;;;15.27;12.73;;;21.90;99.90;;;;;;4937227;29;20078;-90
2021/09/04 08:55:49;;;;;;;16.33;14.10;;;22.00;99.90;;;;;;4935562;28;20034;-91
2021/09/04 08:58:15;;;;;;;15.00;13.43;;;22.10;99.90;;;;;;4948570;28;20024;-91
2021/09/04 09:00:43;;;;;;;13.52;12.23;;;22.00;99.90;;;;;;4929395;29;20016;-91
2021/09/04 09:03:29;;;;;;;12.88;11.55;;;22.20;99.90;;;;;;4936675;29;20040;-92
2021/09/04 09:05:59;;;;;;;16.67;14.68;;;22.30;99.90;;;;;;4935629;29;20039;-92
2021/09/04 09:08:27;;;;;;;16.77;13.80;;;22.50;99.90;;;;;;4948660;29;20084;-91
2021/09/04 09:10:59;;;;;;;16.13;14.40;;;22.70;99.90;;;;;;4932791;29;20028;-91
2021/09/04 09:13:26;;;;;;;15.20;13.75;;;22.80;99.90;;;;;;4935987;29;20023;-90
2021/09/04 09:15:55;;;;;;;16.20;13.10;;;23.00;99.90;;;;;;4936676;29;20059;-89
2021/09/04 09:18:26;;;;;;;14.57;12.77;;;23.00;99.90;;;;;;4935351;29;20507;-91
2021/09/04 09:21:01;;;;;;;14.85;11.40;;;23.10;99.90;;;;;;4936705;29;20043;-91
2021/09/04 09:23:27;;;;;;;12.45;11.15;;;23.30;99.90;;;;;;4935437;29;20032;-91
2021/09/04 09:25:53;;;;;;;17.30;11.68;;;23.30;99.90;;;;;;4948309;28;20032;-90
2021/09/04 09:28:23;;;;;;;13.05;10.95;;;23.20;99.90;;;;;;4931736;29;20027;-92
2021/09/04 09:31:00;;;;;;;11.35;10.15;;;23.00;99.90;;;;;;4936795;29;20095;-91
2021/09/04 09:33:27;;;;;;;13.07;11.00;;;23.10;99.90;;;;;;4935264;29;20042;-91
2021/09/04 09:35:56;;;;;;;11.30;10.20;;;23.10;99.90;;;;;;4936314;29;20094;-90
2021/09/04 09:38:22;;;;;;;13.93;11.30;;;22.90;99.90;;;;;;4935171;29;20039;-90
2021/09/04 09:40:52;;;;;;;13.45;10.13;;;23.10;99.90;;;;;;4936393;29;20016;-91
2021/09/04 09:43:23;;;;;;;11.52;10.32;;;23.20;99.90;;;;;;4935338;29;20035;-90
2021/09/04 09:45:56;;;;;;;11.27;10.15;;;23.20;99.90;;;;;;4936230;29;20037;-91
2021/09/04 09:48:31;;;;;;;12.82;10.77;;;23.40;99.90;;;;;;4935002;29;20032;-91
2021/09/04 09:51:00;;;;;;;12.75;10.18;;;23.40;99.90;;;;;;4949708;28;20099;-90
2021/09/04 09:53:27;;;;;;;11.48;9.43;;;23.40;99.90;;;;;;4936125;29;20038;-92
2021/09/04 09:55:54;;;;;;;11.43;10.10;;;23.40;99.90;;;;;;4935940;29;20093;-90
2021/09/04 09:58:21;;;;;;;13.38;9.48;;;23.40;99.90;;;;;;4936171;29;20351;-90
2021/09/04 10:00:49;;;;;;;10.27;9.23;;;23.50;99.90;;;;;;4935670;29;20039;-90
2021/09/04 10:03:18;;;;;;;10.18;8.63;;;23.40;99.90;;;;;;4935439;29;20134;-91
2021/09/04 10:05:46;;;;;;;10.32;8.60;;;23.30;99.90;;;;;;4934772;29;20024;-91
2021/09/04 10:08:14;;;;;;;10.73;7.97;;;23.40;99.90;;;;;;4934642;29;20019;-91
2021/09/04 10:10:42;;;;;;;14.27;8.85;;;23.30;99.90;;;;;;4934890;29;20035;-91
2021/09/04 10:13:08;;;;;;;10.13;7.65;;;23.50;99.90;;;;;;4936154;29;20028;-90
2021/09/04 10:15:36;;;;;;;13.35;7.82;;;23.40;99.90;;;;;;4934939;29;20031;-91
2021/09/04 10:18:08;;;;;;;10.18;9.07;;;23.50;99.90;;;;;;4948112;28;20614;-91
2021/09/04 10:20:36;;;;;;;11.13;9.45;;;23.50;99.90;;;;;;4937008;29;20035;-91
2021/09/04 10:23:30;;;;;;;10.30;9.13;;;23.60;99.90;;;;;;4935906;29;20509;-92
2021/09/04 10:26:26;;;;;;;19.10;11.73;;;23.70;99.90;;;;;;4936747;29;20376;-91
2021/09/04 10:29:02;;;;;;;14.15;10.75;;;23.60;99.90;;;;;;4935404;29;20042;-90
2021/09/04 10:31:52;;;;;;;10.80;9.40;;;23.60;99.90;;;;;;4934925;29;20081;-90
2021/09/04 10:34:38;;;;;;;10.88;9.25;;;23.70;99.90;;;;;;4925437;29;20028;-88
2021/09/04 10:37:13;;;;;;;11.45;9.23;;;23.90;99.90;;;;;;4935980;29;20044;-89
2021/09/04 10:40:03;;;;;;;10.00;7.75;;;24.00;99.90;;;;;;4935087;29;20385;-91
2021/09/04 10:42:37;;;;;;;12.88;9.98;;;24.20;99.90;;;;;;4929824;29;20036;-90
2021/09/04 10:45:15;;;;;;;10.93;7.35;;;24.10;99.90;;;;;;4934569;29;20035;-90
2021/09/04 10:47:52;;;;;;;7.15;6.45;;;24.20;99.90;;;;;;4935625;29;20027;-89
2021/09/04 10:50:19;;;;;;;8.93;6.68;;;24.20;99.90;;;;;;4935556;29;20547;-90
2021/09/04 10:52:55;;;;;;;8.60;6.30;;;23.80;99.90;;;;;;4935628;29;20070;-90
2021/09/04 10:55:24;;;;;;;7.90;6.45;;;23.90;99.90;;;;;;4935751;29;20019;-90
2021/09/04 10:58:01;;;;;;;8.10;6.82;;;24.10;99.90;;;;;;4935474;29;20032;-90
2021/09/04 11:00:28;;;;;;;9.65;6.28;;;24.00;99.90;;;;;;4935620;29;20020;-89
2021/09/04 11:02:59;;;;;;;6.97;6.30;;;23.80;99.90;;;;;;4932860;29;20052;-88
2021/09/04 11:05:25;;;;;;;12.07;8.68;;;23.80;99.90;;;;;;4935376;29;20059;-91
2021/09/04 11:08:13;;;;;;;7.25;6.03;;;23.70;99.90;;;;;;4935329;29;20062;-89
2021/09/04 11:10:43;;;;;;;6.63;5.93;;;23.80;99.90;;;;;;4934476;29;20091;-89
2021/09/04 11:13:11;;;;;;;6.72;5.00;;;23.90;99.90;;;;;;4933634;29;20388;-91
2021/09/04 11:15:41;;;;;;;7.03;4.75;;;23.90;99.90;;;;;;4933912;29;20028;-90
2021/09/04 11:18:07;;;;;;;8.23;5.20;;;24.00;99.90;;;;;;4931728;29;20035;-91
2021/09/04 11:20:41;;;;;;;5.80;4.47;;;24.00;99.90;;;;;;4953229;29;20488;-91
2021/09/04 11:23:08;;;;;;;7.22;4.30;;;23.90;99.90;;;;;;4954563;28;20050;-90
2021/09/04 11:25:34;;;;;;;6.72;3.55;;;23.80;99.90;;;;;;4954615;28;20023;-91
2021/09/04 11:27:59;;;;;;;3.88;3.42;;;23.80;99.90;;;;;;4953230;28;20062;-91
2021/09/04 11:30:25;;;;;;;6.15;4.00;;;23.80;99.90;;;;;;4954308;28;20651;-90
2021/09/04 11:32:51;;;;;;;3.72;3.38;;;24.00;99.90;;;;;;4954190;28;20015;-90
2021/09/04 11:35:17;;;;;;;5.03;3.88;;;24.10;99.90;;;;;;4954032;28;20050;-91
2021/09/04 11:37:44;;;;;;;5.55;3.72;;;24.40;99.90;;;;;;4953248;28;20035;-91
2021/09/04 11:40:12;;;;;;;5.07;3.88;;;24.30;99.90;;;;;;4953926;28;20031;-91
2021/09/04 11:42:43;;;;;;;4.63;3.13;;;24.00;99.90;;;;;;4969515;28;20435;-90
2021/09/04 11:45:31;;;;;;;5.13;3.90;;;24.10;99.90;;;;;;4950364;28;20031;-92
2021/09/04 11:48:04;;;;;;;3.95;3.40;;;24.00;99.90;;;;;;4947242;29;20040;-90
2021/09/04 11:50:31;;;;;;;6.40;4.20;;;23.90;99.90;;;;;;4954044;28;20073;-91
2021/09/04 11:52:58;;;;;;;4.40;3.90;;;24.00;99.90;;;;;;4942820;28;20476;-91
2021/09/04 11:55:26;;;;;;;3.95;3.00;;;24.00;99.90;;;;;;4951663;29;20019;-90
2021/09/04 11:57:57;;;;;;;4.18;2.97;;;24.00;99.90;;;;;;4953093;29;20027;-91
2021/09/04 12:00:28;;;;;;;5.20;3.00;;;24.10;99.90;;;;;;4940260;28;20117;-90
2021/09/04 12:03:09;;;;;;;3.10;2.63;;;24.20;99.90;;;;;;4952061;28;20047;-89
2021/09/04 12:05:40;;;;;;;5.85;3.10;;;24.20;99.90;;;;;;4953422;28;20039;-89
2021/09/04 12:08:13;;;;;;;4.25;3.10;;;24.40;99.90;;;;;;4961481;28;20031;-90
2021/09/04 12:10:45;;;;;;;4.68;3.97;;;24.30;99.90;;;;;;4947145;29;20179;-91
2021/09/04 12:13:17;;;;;;;4.50;4.10;;;24.50;99.90;;;;;;4946315;28;20028;-90
2021/09/04 12:15:43;;;;;;;6.07;4.10;;;24.20;99.90;;;;;;4931041;29;20035;-91
2021/09/04 12:18:10;;;;;;;5.88;4.30;;;24.60;99.90;;;;;;4931475;29;20032;-91
2021/09/04 12:20:40;;;;;;;5.60;4.97;;;24.80;99.90;;;;;;4932206;29;20023;-91
2021/09/04 12:23:18;;;;;;;6.47;5.25;;;24.80;99.90;;;;;;4941713;28;20027;-91
2021/09/04 12:25:49;;;;;;;6.20;4.47;;;25.20;99.90;;;;;;4936401;29;20030;-91
2021/09/04 12:28:27;;;;;;;5.65;4.35;;;25.80;99.90;;;;;;4957825;28;20388;-91
2021/09/04 12:31:00;;;;;;;6.50;5.20;;;25.70;99.90;;;;;;4957952;28;20488;-91